Aeroporto :
LOGIN :

Iscrizione | Disclaimer

   EN    FR    IT 

 










Sommario :    VFR   VFR Marginale   IFR   IFR Intensivo   IFR Molto Intensivo
Visibilità : 
Base nubi : 
>= 8 km
>= 3000ft
5 / 8 km
1000 / 3000 ft
1500m / 5 km
500 / 1000 ft
800 / 1500m
200 / 500 ft
< 800m
< 200 ft
Simboli :   Temporali  Nebbia  Neve Forte  Precipitazioni Forti  Vento > 20 kt
SIGMETs :   Varie  Temporali  Ghiacco  Turbolenza  Onda orograficha  Ceneri Vulcaniche






- Altitudine del aeroporto : 586 ft
- Codice IATA : IEV


UKKK - Zhuliany

ULTIMO METAR :
  • 260300Z 26003MPS 9999 BKN033 05/03 Q1023 R26/70D NOSIG

METARs OBSOLETI :
  • 260230Z 26003MPS 9999 BKN032 05/03 Q1023 R26/70D NOSIG
  • 260200Z 27003MPS 9999 BKN036 04/03 Q1023 R26/70D NOSIG
  • 260130Z 26003MPS 9999 BKN038 05/03 Q1023 R26/CLRD70 NOSIG
  • 260100Z 26003MPS 9999 BKN039 05/03 Q1023 R26/70D NOSIG
  • 260030Z 26002MPS 9999 SCT009 BKN040 05/04 Q1023 R26/70D NOSIG

TAF TAF UKKK
Valido dal 26 a 00 ore il 27 a 00 ore UTC


252305Z 2600/2624 27003G08MPS 6000 OVC007 TX08/2612Z TN03/2604Z
TEMPO 2600/2607 1000 BR OVC004
PROB40
TEMPO 2600/2607 0300 -DZ FG OVC001
BECMG 2607/2609 23003G08MPS 9999 BKN015



MetMap, La meteo Aeronautica in un colpo d'occhio ! - Copyright ORBIFLY Dicembre 2007 - Disclaimer

ORBIFLY MET'MAP TEAM :

Programmazione e sviluppo : Alexandra Zaïnal
Concezione : Baudouin d'Aumeries
Aiuto per la programmazione : Marc-Olivier Méhu
Supporto tecnico e logistico : Manuel Goepfert
Aiuto per la traduzione : Arnaldo La Scala

Contatto : metmap@orbifly.com




FONTI E CREDITI :

   NOAA